CheckWX is a tool to help pilots better visualize weather data.  It is not intended as a substitute for an official pre-flight weather briefing.

18:33:36 UTC

KABR TAF
Aberdeen Regional Airport
Aberdeen, South Dakota, USA
KABR 221739Z 2218/2318 09004KT 1SM -SN OVC015 TEMPO 2218/2221 1/2SM SN FM230100 13008KT 2SM -SN OVC011 FM230400 13005KT P6SM OVC009 FM231600 32005KT P6SM BKN017

Feb-22@
18:00 UTC

Feb-22 @ 18:00 UTC

Feb-23@
01:00 UTC

Feb-23 @ 01:00 UTC

KABR 221739Z 2218/2318 09004KT 1SM -SN OVC015
Wind
  • 090° at 4 KTS
Conditions
Light Snow
Cloud Levels
  • Overcast at 1,500' AGL

Feb-22@
18:00 UTC

Feb-22 @ 18:00 UTC

Feb-22@
21:00 UTC

Feb-22 @ 21:00 UTC

TEMPO 2218/2221 1/2SM SN

Temporary

TemporaryChanges expected for less than half the time period

Conditions
Snow

Feb-23@
01:00 UTC

Feb-23 @ 01:00 UTC

Feb-23@
04:00 UTC

Feb-23 @ 04:00 UTC

FM230100 13008KT 2SM -SN OVC011

From

FromStandard forecast or significant change

Wind
  • 130° at 8 KTS
Conditions
Light Snow
Cloud Levels
  • Overcast at 1,100' AGL

Feb-23@
04:00 UTC

Feb-23 @ 04:00 UTC

Feb-23@
16:00 UTC

Feb-23 @ 16:00 UTC

FM230400 13005KT P6SM OVC009

From

FromStandard forecast or significant change

Wind
  • 130° at 5 KTS
Cloud Levels
  • Overcast at 900' AGL

Feb-23@
16:00 UTC

Feb-23 @ 16:00 UTC

Feb-23@
18:00 UTC

Feb-23 @ 18:00 UTC

FM231600 32005KT P6SM BKN017

From

FromStandard forecast or significant change

Wind
  • 320° at 5 KTS
Cloud Levels
  • Broken at 1,700' AGL